createdAt,value
2022-09-28T00:01:27.990Z,30.42
2022-09-28T00:03:57.534Z,30.14
2022-09-28T00:06:27.425Z,30.17
2022-09-28T00:08:56.418Z,29.46
2022-09-28T00:11:26.176Z,29.48
2022-09-28T00:13:56.241Z,29.41
2022-09-28T00:16:29.126Z,28.41
2022-09-28T00:18:57.374Z,29.07
2022-09-28T00:21:31.709Z,28.99
2022-09-28T00:24:04.203Z,28.69
2022-09-28T00:26:36.634Z,28.89
2022-09-28T00:29:14.342Z,28.63
2022-09-28T00:31:45.443Z,28.48
2022-09-28T00:34:17.269Z,28.23
2022-09-28T00:36:47.017Z,28.01
2022-09-28T00:39:18.491Z,27.77
2022-09-28T00:41:49.376Z,27.35
2022-09-28T00:44:44.940Z,27.19
2022-09-28T00:47:37.151Z,27.26
2022-09-28T00:50:17.055Z,27.14
2022-09-28T00:53:32.093Z,27.08
2022-09-28T00:56:02.448Z,27.04
2022-09-28T00:58:37.288Z,26.60
2022-09-28T01:01:08.296Z,26.42
2022-09-28T01:03:40.139Z,26.29
2022-09-28T01:06:09.202Z,26.07
2022-09-28T01:08:38.010Z,25.92
2022-09-28T01:11:06.194Z,25.87
2022-09-28T01:13:39.120Z,25.83
2022-09-28T01:16:22.411Z,25.45
2022-09-28T01:19:14.542Z,24.82
2022-09-28T01:22:15.736Z,24.46
2022-09-28T01:24:47.315Z,23.67
2022-09-28T01:27:33.468Z,23.20
2022-09-28T01:30:14.608Z,22.66
2022-09-28T01:33:04.465Z,23.16
2022-09-28T01:35:45.764Z,22.88
2022-09-28T01:38:24.509Z,22.70
2022-09-28T01:40:56.896Z,22.50
2022-09-28T01:43:33.614Z,22.58
2022-09-28T01:46:13.843Z,22.97
2022-09-28T01:49:06.138Z,22.18
2022-09-28T01:51:52.572Z,22.07
2022-09-28T01:54:33.283Z,21.75
2022-09-28T01:57:14.432Z,21.01
2022-09-28T01:59:48.738Z,21.18
2022-09-28T02:02:25.873Z,21.24
2022-09-28T02:05:08.899Z,21.08
2022-09-28T02:07:50.971Z,20.52
2022-09-28T02:10:28.747Z,20.38
2022-09-28T02:13:04.018Z,20.48
2022-09-28T02:15:41.653Z,20.45
2022-09-28T02:18:11.026Z,20.21
2022-09-28T02:20:42.821Z,20.18
2022-09-28T02:23:13.606Z,20.13
2022-09-28T02:25:51.211Z,19.84
2022-09-28T02:28:19.535Z,19.67
2022-09-28T02:30:47.598Z,19.64
2022-09-28T02:33:39.625Z,19.45
2022-09-28T02:36:11.150Z,18.57
2022-09-28T02:38:39.638Z,18.27
2022-09-28T02:41:40.803Z,18.34
2022-09-28T02:44:20.216Z,18.40
2022-09-28T02:47:01.330Z,18.22
2022-09-28T02:49:38.874Z,18.19
2022-09-28T02:52:57.252Z,18.38
2022-09-28T02:55:51.263Z,18.30
2022-09-28T02:58:29.072Z,17.96
2022-09-28T03:01:21.056Z,18.28
2022-09-28T03:04:05.116Z,18.31
2022-09-28T03:06:47.102Z,18.28
2022-09-28T03:09:20.901Z,18.23
2022-09-28T03:11:58.994Z,18.14
2022-09-28T03:14:27.052Z,17.74
2022-09-28T03:16:55.102Z,17.34
2022-09-28T03:19:29.933Z,17.24
2022-09-28T03:22:00.708Z,17.09
2022-09-28T03:24:28.859Z,17.10
2022-09-28T03:26:56.905Z,16.82
2022-09-28T03:29:24.967Z,16.83
2022-09-28T03:31:53.097Z,16.77
2022-09-28T03:34:21.118Z,16.85
2022-09-28T03:36:51.437Z,16.46
2022-09-28T03:39:21.815Z,16.43
2022-09-28T03:41:49.820Z,16.53
2022-09-28T03:44:20.590Z,16.03
2022-09-28T03:46:48.574Z,15.43
2022-09-28T03:49:16.717Z,15.49
2022-09-28T03:51:44.925Z,15.47
2022-09-28T03:54:12.965Z,15.28
2022-09-28T03:56:42.072Z,15.62
2022-09-28T03:59:12.553Z,15.47
2022-09-28T04:01:40.736Z,15.70
2022-09-28T04:04:08.769Z,15.69
2022-09-28T04:06:36.804Z,15.80
2022-09-28T04:09:05.354Z,15.77
2022-09-28T04:11:43.036Z,15.22
2022-09-28T04:14:21.355Z,15.04
2022-09-28T04:16:49.378Z,15.09
2022-09-28T04:19:17.551Z,14.93
2022-09-28T04:21:48.493Z,15.06
2022-09-28T04:24:19.129Z,15.14
2022-09-28T04:26:52.422Z,15.25
2022-09-28T04:29:22.985Z,15.41
2022-09-28T04:31:53.407Z,15.43
2022-09-28T04:34:23.049Z,15.42
2022-09-28T04:36:53.342Z,15.40
2022-09-28T04:39:24.257Z,15.11
2022-09-28T04:41:52.311Z,14.87
2022-09-28T04:44:22.936Z,14.91
2022-09-28T04:46:50.972Z,14.95
2022-09-28T04:49:19.097Z,14.93
2022-09-28T04:51:47.149Z,14.79
2022-09-28T04:54:17.846Z,14.82
2022-09-28T04:56:45.842Z,14.97
2022-09-28T04:59:13.957Z,14.86
2022-09-28T05:01:42.051Z,14.65
2022-09-28T05:04:10.376Z,14.39
2022-09-28T05:06:38.408Z,14.28
2022-09-28T05:09:06.619Z,13.33
2022-09-28T05:11:34.610Z,13.64
2022-09-28T05:14:05.372Z,13.65
2022-09-28T05:16:33.462Z,13.65
2022-09-28T05:19:01.525Z,13.80
2022-09-28T05:21:29.593Z,13.68
2022-09-28T05:23:57.619Z,13.61
2022-09-28T05:26:25.965Z,13.56
2022-09-28T05:28:53.958Z,13.43
2022-09-28T05:31:22.104Z,13.47
2022-09-28T05:33:50.271Z,13.70
2022-09-28T05:36:18.278Z,13.67
2022-09-28T05:38:46.897Z,13.84
2022-09-28T05:41:14.958Z,13.83
2022-09-28T05:43:47.911Z,13.89
2022-09-28T05:46:16.045Z,13.69
2022-09-28T05:48:46.484Z,13.66
2022-09-28T05:51:17.779Z,13.39
2022-09-28T05:53:45.859Z,12.62
2022-09-28T05:56:13.941Z,12.99
2022-09-28T05:58:41.998Z,12.97
2022-09-28T06:01:10.160Z,13.16
2022-09-28T06:03:40.702Z,13.28
2022-09-28T06:06:08.768Z,13.17
2022-09-28T06:08:39.500Z,13.09
2022-09-28T06:11:07.548Z,13.01
2022-09-28T06:13:35.770Z,13.14
2022-09-28T06:16:03.779Z,13.14
2022-09-28T06:18:31.832Z,13.04
2022-09-28T06:20:59.874Z,12.92
2022-09-28T06:23:27.884Z,12.81
2022-09-28T06:25:59.585Z,12.72
2022-09-28T06:28:27.640Z,12.75
2022-09-28T06:30:55.657Z,12.82
2022-09-28T06:33:26.415Z,12.72
2022-09-28T06:35:54.934Z,12.72
2022-09-28T06:38:22.972Z,12.64
2022-09-28T06:40:51.027Z,12.65
2022-09-28T06:43:19.077Z,12.62
2022-09-28T06:45:54.740Z,12.18
2022-09-28T06:48:22.803Z,12.09
2022-09-28T06:50:51.331Z,11.75
2022-09-28T06:53:19.374Z,11.87
2022-09-28T06:55:48.636Z,12.01
2022-09-28T06:58:18.921Z,12.05
2022-09-28T07:00:52.193Z,12.03
2022-09-28T07:03:24.031Z,12.04
2022-09-28T07:05:53.779Z,12.13
2022-09-28T07:08:24.527Z,11.88
2022-09-28T07:10:54.220Z,11.98
2022-09-28T07:13:47.681Z,11.82
2022-09-28T07:16:14.088Z,11.82
2022-09-28T07:18:44.743Z,11.85
2022-09-28T07:21:24.816Z,11.97
2022-09-28T07:23:55.063Z,11.99
2022-09-28T07:26:24.618Z,11.96
2022-09-28T07:28:53.408Z,11.96
2022-09-28T07:31:21.472Z,11.97
2022-09-28T07:33:51.452Z,11.84
2022-09-28T07:36:22.572Z,11.83
2022-09-28T07:38:53.536Z,11.72
2022-09-28T07:41:21.505Z,11.10
2022-09-28T07:43:49.689Z,10.96
2022-09-28T07:46:17.833Z,10.86
2022-09-28T07:48:49.167Z,11.00
2022-09-28T07:51:19.547Z,11.14
2022-09-28T07:53:47.623Z,11.10
2022-09-28T07:56:20.860Z,11.16
2022-09-28T07:58:49.443Z,11.04
2022-09-28T08:01:17.911Z,11.12
2022-09-28T08:03:47.030Z,11.19
2022-09-28T08:06:17.496Z,11.13
2022-09-28T08:08:45.887Z,11.09
2022-09-28T08:11:18.122Z,11.11
2022-09-28T08:13:46.164Z,11.12
2022-09-28T08:16:14.671Z,11.00
2022-09-28T08:18:42.808Z,10.92
2022-09-28T08:21:11.881Z,10.88
2022-09-28T08:23:40.316Z,11.03
2022-09-28T08:26:13.285Z,11.00
2022-09-28T08:28:46.297Z,10.97
2022-09-28T08:31:16.691Z,10.92
2022-09-28T08:33:47.301Z,10.89
2022-09-28T08:36:15.293Z,10.89
2022-09-28T08:38:43.610Z,10.90
2022-09-28T08:41:35.048Z,10.83
2022-09-28T08:44:21.719Z,10.73
2022-09-28T08:47:02.862Z,10.56
2022-09-28T08:49:39.387Z,10.36
2022-09-28T08:52:24.051Z,10.20
2022-09-28T08:55:31.206Z,10.11
2022-09-28T08:58:07.596Z,10.13
2022-09-28T09:00:48.375Z,10.14
2022-09-28T09:03:22.703Z,10.12
2022-09-28T09:06:07.873Z,10.17
2022-09-28T09:08:49.204Z,10.28
2022-09-28T09:11:32.085Z,10.39
2022-09-28T09:14:26.020Z,10.38
2022-09-28T09:17:00.229Z,10.40
2022-09-28T09:19:44.972Z,10.38
2022-09-28T09:22:22.676Z,10.29
2022-09-28T09:25:04.312Z,10.08
2022-09-28T09:28:36.556Z,9.78
2022-09-28T09:31:13.494Z,9.73
2022-09-28T09:34:04.938Z,9.70
2022-09-28T09:37:03.725Z,9.54
2022-09-28T09:39:50.635Z,9.33
2022-09-28T09:42:21.208Z,9.44
2022-09-28T09:45:19.641Z,9.52
2022-09-28T09:48:27.468Z,9.67
2022-09-28T09:51:05.504Z,9.73
2022-09-28T09:53:54.955Z,9.85
2022-09-28T09:56:48.074Z,9.83
2022-09-28T09:59:23.872Z,9.79
2022-09-28T10:01:54.202Z,9.74
2022-09-28T10:04:27.070Z,9.65
2022-09-28T10:07:02.093Z,9.56
2022-09-28T10:09:53.648Z,9.44
2022-09-28T10:12:23.723Z,9.48
2022-09-28T10:14:51.869Z,9.09
2022-09-28T10:17:20.791Z,8.92
2022-09-28T10:19:51.464Z,8.65
2022-09-28T10:22:23.484Z,8.77
2022-09-28T10:24:54.774Z,8.87
2022-09-28T10:27:36.542Z,8.36
2022-09-28T10:30:10.405Z,8.62
2022-09-28T10:32:46.669Z,8.69
2022-09-28T10:35:23.396Z,8.92
2022-09-28T10:37:56.591Z,8.89
2022-09-28T10:40:38.374Z,8.87
2022-09-28T10:43:18.803Z,9.07
2022-09-28T10:45:47.092Z,9.11
2022-09-28T10:48:21.395Z,9.06
2022-09-28T10:51:03.705Z,9.07
2022-09-28T10:53:32.040Z,9.08
2022-09-28T10:56:02.964Z,9.05
2022-09-28T10:58:42.086Z,9.04
2022-09-28T11:01:14.479Z,8.99
2022-09-28T11:03:57.020Z,9.01
2022-09-28T11:06:33.704Z,8.94
2022-09-28T11:09:08.427Z,8.95
2022-09-28T11:11:47.743Z,8.96
2022-09-28T11:14:43.006Z,8.90
2022-09-28T11:17:25.291Z,8.84
2022-09-28T11:19:56.901Z,8.85
2022-09-28T11:22:26.818Z,8.84
2022-09-28T11:25:19.150Z,8.74
2022-09-28T11:27:52.891Z,8.57
2022-09-28T11:30:31.847Z,8.60
2022-09-28T11:33:08.377Z,8.33
2022-09-28T11:35:54.052Z,8.09
2022-09-28T11:38:50.805Z,8.23
2022-09-28T11:41:41.725Z,8.43
2022-09-28T11:44:09.635Z,8.51
2022-09-28T11:47:03.982Z,8.58
2022-09-28T11:49:53.766Z,8.59
2022-09-28T11:52:32.868Z,8.48
2022-09-28T11:55:06.511Z,8.39
2022-09-28T11:57:43.005Z,8.43
2022-09-28T12:00:21.803Z,8.57
2022-09-28T12:03:05.451Z,8.51
2022-09-28T12:05:40.489Z,8.51
2022-09-28T12:08:22.612Z,8.43
2022-09-28T12:11:06.407Z,8.41
2022-09-28T12:13:40.135Z,8.38
2022-09-28T12:16:38.927Z,8.27
2022-09-28T12:19:36.703Z,8.00
2022-09-28T12:22:34.850Z,7.90
2022-09-28T12:25:07.836Z,8.06
2022-09-28T12:27:51.993Z,8.26
2022-09-28T12:30:22.639Z,8.20
2022-09-28T12:33:05.356Z,8.12
2022-09-28T12:35:58.221Z,8.25
2022-09-28T12:39:17.994Z,8.27
2022-09-28T12:41:59.237Z,7.74
2022-09-28T12:44:34.505Z,7.71
2022-09-28T12:47:32.512Z,7.63
2022-09-28T12:50:45.702Z,7.77
2022-09-28T12:53:46.723Z,7.90
2022-09-28T12:56:26.634Z,7.92
2022-09-28T12:59:21.702Z,8.03
2022-09-28T13:02:12.588Z,8.12
2022-09-28T13:04:51.394Z,8.25
2022-09-28T13:07:36.960Z,8.42
2022-09-28T13:10:43.011Z,8.39
2022-09-28T13:13:27.930Z,8.32
2022-09-28T13:16:17.279Z,8.44
2022-09-28T13:18:45.329Z,8.21
2022-09-28T13:21:33.517Z,7.80
2022-09-28T13:24:27.890Z,7.70
2022-09-28T13:26:55.833Z,7.91
2022-09-28T13:29:26.842Z,8.17
2022-09-28T13:32:00.563Z,8.04
2022-09-28T13:34:35.444Z,7.98
2022-09-28T13:37:15.687Z,8.08
2022-09-28T13:39:46.520Z,8.02
2022-09-28T13:42:28.394Z,8.09
2022-09-28T13:44:59.361Z,8.20
2022-09-28T13:47:53.033Z,8.19
2022-09-28T13:50:45.373Z,8.10
2022-09-28T13:53:22.066Z,7.84
2022-09-28T13:56:00.473Z,7.76
2022-09-28T13:58:39.183Z,7.71
2022-09-28T14:01:23.203Z,7.80
2022-09-28T14:04:02.050Z,7.92
2022-09-28T14:06:34.275Z,8.00
2022-09-28T14:09:27.124Z,8.05
2022-09-28T14:11:55.044Z,8.02
2022-09-28T14:14:31.789Z,7.79
2022-09-28T14:17:20.469Z,7.82
2022-09-28T14:19:54.156Z,7.87
2022-09-28T14:22:39.056Z,7.94
2022-09-28T14:25:14.712Z,8.02
2022-09-28T14:28:01.819Z,7.83
2022-09-28T14:30:45.136Z,7.78
2022-09-28T14:33:22.468Z,7.93
2022-09-28T14:35:56.248Z,8.09
2022-09-28T14:38:26.368Z,8.02
2022-09-28T14:41:03.318Z,8.20
2022-09-28T14:43:46.285Z,8.37
2022-09-28T14:46:14.334Z,8.52
2022-09-28T14:49:00.412Z,8.66
2022-09-28T14:51:28.384Z,8.77
2022-09-28T14:54:00.922Z,8.86
2022-09-28T14:56:54.966Z,9.05
2022-09-28T14:59:24.446Z,8.86
2022-09-28T15:01:59.974Z,8.68
2022-09-28T15:04:31.477Z,8.88
2022-09-28T15:06:59.560Z,9.17
2022-09-28T15:09:30.897Z,9.32
2022-09-28T15:12:06.697Z,9.27
2022-09-28T15:14:42.418Z,9.57
2022-09-28T15:17:12.742Z,9.62
2022-09-28T15:19:48.307Z,9.69
2022-09-28T15:22:20.957Z,9.91
2022-09-28T15:25:02.750Z,10.18
2022-09-28T15:27:39.183Z,10.08
2022-09-28T15:30:26.594Z,10.21
2022-09-28T15:32:55.681Z,10.22
2022-09-28T15:35:28.917Z,10.15
2022-09-28T15:37:59.552Z,10.28
2022-09-28T15:40:40.753Z,10.56
2022-09-28T15:43:29.798Z,10.75
2022-09-28T15:46:14.313Z,10.96
2022-09-28T15:48:48.197Z,11.34
2022-09-28T15:51:16.317Z,11.57
2022-09-28T15:54:15.735Z,11.44
2022-09-28T15:57:01.369Z,11.80
2022-09-28T15:59:37.024Z,11.99
2022-09-28T16:02:11.373Z,12.26
2022-09-28T16:04:46.696Z,12.59
2022-09-28T16:07:14.716Z,12.78
2022-09-28T16:10:15.343Z,13.08
2022-09-28T16:12:57.755Z,13.02
2022-09-28T16:15:36.638Z,13.19
2022-09-28T16:18:19.613Z,13.31
2022-09-28T16:20:53.348Z,13.18
2022-09-28T16:23:31.290Z,13.13
2022-09-28T16:26:02.800Z,13.53
2022-09-28T16:28:39.977Z,13.12
2022-09-28T16:31:13.723Z,13.34
2022-09-28T16:33:58.640Z,13.28
2022-09-28T16:36:29.115Z,13.53
2022-09-28T16:38:57.619Z,13.55
2022-09-28T16:41:29.461Z,13.73
2022-09-28T16:44:05.888Z,13.57
2022-09-28T16:46:37.489Z,13.86
2022-09-28T16:49:08.325Z,13.98
2022-09-28T16:51:38.683Z,14.40
2022-09-28T16:54:24.561Z,14.47
2022-09-28T16:56:52.617Z,14.57
2022-09-28T16:59:20.692Z,14.56
2022-09-28T17:01:49.538Z,14.71
2022-09-28T17:04:20.283Z,15.26
2022-09-28T17:06:48.400Z,15.58
2022-09-28T17:09:16.530Z,15.66
2022-09-28T17:11:44.572Z,15.31
2022-09-28T17:14:15.025Z,15.41
2022-09-28T17:17:06.757Z,15.59
2022-09-28T17:19:31.297Z,15.78
2022-09-28T17:21:59.434Z,16.08
2022-09-28T17:24:27.452Z,16.30
2022-09-28T17:26:58.413Z,16.39
2022-09-28T17:29:26.444Z,16.42
2022-09-28T17:31:54.531Z,16.55
2022-09-28T17:34:22.794Z,16.40
2022-09-28T17:36:50.861Z,16.56
2022-09-28T17:39:21.426Z,16.73
2022-09-28T17:41:51.855Z,17.21
2022-09-28T17:44:19.949Z,17.31
2022-09-28T17:46:50.912Z,17.76
2022-09-28T17:49:19.030Z,17.84
2022-09-28T17:51:46.998Z,17.92
2022-09-28T17:54:15.026Z,18.10
2022-09-28T17:56:43.095Z,18.02
2022-09-28T17:59:17.837Z,18.08
2022-09-28T18:01:46.027Z,18.50
2022-09-28T18:04:39.646Z,18.72
2022-09-28T18:07:04.549Z,18.12
2022-09-28T18:09:32.559Z,18.77
2022-09-28T18:12:04.516Z,19.28
2022-09-28T18:14:34.841Z,19.33
2022-09-28T18:17:06.631Z,19.66
2022-09-28T18:19:34.706Z,19.87
2022-09-28T18:22:02.719Z,20.12
2022-09-28T18:24:30.860Z,20.12
2022-09-28T18:27:02.017Z,18.88
2022-09-28T18:29:33.059Z,19.01
2022-09-28T18:32:04.691Z,19.44
2022-09-28T18:34:35.648Z,19.29
2022-09-28T18:37:06.424Z,19.92
2022-09-28T18:39:36.445Z,20.68
2022-09-28T18:42:04.547Z,20.63
2022-09-28T18:44:37.663Z,20.37
2022-09-28T18:47:05.785Z,20.01
2022-09-28T18:49:33.760Z,20.36
2022-09-28T18:52:02.052Z,20.82
2022-09-28T18:54:30.084Z,20.54
2022-09-28T18:57:01.007Z,21.33
2022-09-28T18:59:31.373Z,21.61
2022-09-28T19:02:04.105Z,21.15
2022-09-28T19:04:32.273Z,21.67
2022-09-28T19:07:00.323Z,21.74
2022-09-28T19:09:28.533Z,21.81
2022-09-28T19:11:56.629Z,22.26
2022-09-28T19:14:24.649Z,21.80
2022-09-28T19:16:52.835Z,21.94
2022-09-28T19:19:21.742Z,21.96
2022-09-28T19:21:49.755Z,22.12
2022-09-28T19:24:20.195Z,21.88
2022-09-28T19:26:48.913Z,22.71
2022-09-28T19:29:17.236Z,22.81
2022-09-28T19:31:45.290Z,23.57
2022-09-28T19:34:14.557Z,23.01
2022-09-28T19:36:45.624Z,23.02
2022-09-28T19:39:16.731Z,23.51
2022-09-28T19:41:48.645Z,24.33
2022-09-28T19:44:22.384Z,23.95
2022-09-28T19:46:50.873Z,23.66
2022-09-28T19:49:19.154Z,23.97
2022-09-28T19:52:10.976Z,23.85
2022-09-28T19:54:36.717Z,23.47
2022-09-28T19:57:05.609Z,23.59
2022-09-28T19:59:37.087Z,24.05
2022-09-28T20:02:09.347Z,24.00
2022-09-28T20:04:37.400Z,24.74
2022-09-28T20:07:05.729Z,24.96
2022-09-28T20:09:34.223Z,25.67
2022-09-28T20:12:05.200Z,24.69
2022-09-28T20:14:37.910Z,25.23
2022-09-28T20:17:11.203Z,25.93
2022-09-28T20:19:41.528Z,25.80
2022-09-28T20:22:09.561Z,25.53
2022-09-28T20:24:37.733Z,25.37
2022-09-28T20:27:05.797Z,25.57
2022-09-28T20:29:36.443Z,26.08
2022-09-28T20:32:07.466Z,25.81
2022-09-28T20:34:35.465Z,25.99
2022-09-28T20:37:03.543Z,25.98
2022-09-28T20:39:31.635Z,25.93
2022-09-28T20:42:04.911Z,25.93
2022-09-28T20:44:32.953Z,25.64
2022-09-28T20:47:01.518Z,26.49
2022-09-28T20:49:31.865Z,26.37
2022-09-28T20:51:59.959Z,26.60
2022-09-28T20:54:30.289Z,27.08
2022-09-28T20:57:00.709Z,26.83
2022-09-28T20:59:31.592Z,26.51
2022-09-28T21:01:59.668Z,26.85
2022-09-28T21:04:27.908Z,27.77
2022-09-28T21:06:55.993Z,27.81
2022-09-28T21:09:24.064Z,28.02
2022-09-28T21:11:52.044Z,27.47
2022-09-28T21:14:20.765Z,27.92
2022-09-28T21:16:49.086Z,28.14
2022-09-28T21:19:17.110Z,28.28
2022-09-28T21:21:48.004Z,28.53
2022-09-28T21:24:16.091Z,28.90
2022-09-28T21:26:44.468Z,28.16
2022-09-28T21:29:15.235Z,27.43
2022-09-28T21:31:47.098Z,27.91
2022-09-28T21:34:21.845Z,27.17
2022-09-28T21:36:50.980Z,27.57
2022-09-28T21:39:19.681Z,28.49
2022-09-28T21:41:50.017Z,28.64
2022-09-28T21:44:18.079Z,28.67
2022-09-28T21:46:46.158Z,28.48
2022-09-28T21:49:17.127Z,28.73
2022-09-28T21:51:45.142Z,28.42
2022-09-28T21:54:13.225Z,28.55
2022-09-28T21:56:43.993Z,28.46
2022-09-28T21:59:12.021Z,28.26
2022-09-28T22:01:40.077Z,28.55
2022-09-28T22:04:11.204Z,29.11
2022-09-28T22:06:39.346Z,28.87
2022-09-28T22:09:10.824Z,28.26
2022-09-28T22:11:38.886Z,28.28
2022-09-28T22:14:06.964Z,28.56
2022-09-28T22:16:35.027Z,29.18
2022-09-28T22:19:03.063Z,29.26
2022-09-28T22:21:35.131Z,28.84
2022-09-28T22:24:07.740Z,28.88
2022-09-28T22:26:37.653Z,29.29
2022-09-28T22:29:09.410Z,29.05
2022-09-28T22:31:41.495Z,28.94
2022-09-28T22:34:12.065Z,29.08
2022-09-28T22:36:42.532Z,29.51
2022-09-28T22:39:10.592Z,31.52
2022-09-28T22:41:40.953Z,30.50
2022-09-28T22:44:09.024Z,29.89
2022-09-28T22:46:37.164Z,30.24
2022-09-28T22:49:10.111Z,31.91
2022-09-28T22:51:41.608Z,37.83
2022-09-28T22:54:09.603Z,39.88
2022-09-28T22:56:37.652Z,38.41
2022-09-28T22:59:08.268Z,35.04
2022-09-28T23:01:36.309Z,31.76
2022-09-28T23:04:04.403Z,30.48
2022-09-28T23:06:32.476Z,30.79
2022-09-28T23:09:01.110Z,36.11
2022-09-28T23:11:30.093Z,40.59
2022-09-28T23:13:59.494Z,41.24
2022-09-28T23:16:28.203Z,42.07
2022-09-28T23:19:01.266Z,41.41
2022-09-28T23:21:32.442Z,39.31
2022-09-28T23:24:04.398Z,36.87
2022-09-28T23:26:34.055Z,37.58
2022-09-28T23:29:04.413Z,35.17
2022-09-28T23:31:35.624Z,32.96
2022-09-28T23:34:05.714Z,31.06
2022-09-28T23:36:37.106Z,30.00
2022-09-28T23:39:07.936Z,30.78
2022-09-28T23:41:35.980Z,31.21
2022-09-28T23:44:05.813Z,30.75
2022-09-28T23:46:33.939Z,30.56
2022-09-28T23:49:02.290Z,30.11
2022-09-28T23:51:30.285Z,28.53
2022-09-28T23:54:00.918Z,26.87
2022-09-28T23:56:28.956Z,25.71
2022-09-28T23:58:59.894Z,25.28
